sensor_id;sensor_type;location;lat;lon;timestamp;P1;durP1;ratioP1;P2;durP2;ratioP2
14584;SDS011;7379;51.506;11.876;2022-09-27T00:00:38;1.65;;;1.55;;
14584;SDS011;7379;51.506;11.876;2022-09-27T00:03:06;1.70;;;1.60;;
14584;SDS011;7379;51.506;11.876;2022-09-27T00:05:33;1.70;;;1.60;;
14584;SDS011;7379;51.506;11.876;2022-09-27T00:07:59;1.85;;;1.70;;
14584;SDS011;7379;51.506;11.876;2022-09-27T00:10:27;2.55;;;1.80;;
14584;SDS011;7379;51.506;11.876;2022-09-27T00:12:54;2.33;;;1.60;;
14584;SDS011;7379;51.506;11.876;2022-09-27T00:15:21;2.17;;;1.40;;
14584;SDS011;7379;51.506;11.876;2022-09-27T00:17:49;2.30;;;1.67;;
14584;SDS011;7379;51.506;11.876;2022-09-27T00:20:16;2.40;;;1.55;;
14584;SDS011;7379;51.506;11.876;2022-09-27T00:22:45;2.13;;;1.80;;
14584;SDS011;7379;51.506;11.876;2022-09-27T00:25:12;1.65;;;1.50;;
14584;SDS011;7379;51.506;11.876;2022-09-27T00:27:39;2.00;;;1.80;;
14584;SDS011;7379;51.506;11.876;2022-09-27T00:30:06;2.10;;;1.77;;
14584;SDS011;7379;51.506;11.876;2022-09-27T00:32:33;1.77;;;1.67;;
14584;SDS011;7379;51.506;11.876;2022-09-27T00:35:02;2.35;;;1.95;;
14584;SDS011;7379;51.506;11.876;2022-09-27T00:37:29;3.10;;;1.73;;
14584;SDS011;7379;51.506;11.876;2022-09-27T00:39:56;2.80;;;1.80;;
14584;SDS011;7379;51.506;11.876;2022-09-27T00:42:23;2.20;;;1.70;;
14584;SDS011;7379;51.506;11.876;2022-09-27T00:44:54;1.92;;;1.73;;
14584;SDS011;7379;51.506;11.876;2022-09-27T00:47:33;2.25;;;1.80;;
14584;SDS011;7379;51.506;11.876;2022-09-27T00:50:07;2.15;;;1.70;;
14584;SDS011;7379;51.506;11.876;2022-09-27T00:52:40;1.80;;;1.70;;
14584;SDS011;7379;51.506;11.876;2022-09-27T00:55:13;2.22;;;1.80;;
14584;SDS011;7379;51.506;11.876;2022-09-27T00:57:43;1.80;;;1.70;;
14584;SDS011;7379;51.506;11.876;2022-09-27T01:00:11;3.22;;;1.80;;
14584;SDS011;7379;51.506;11.876;2022-09-27T01:02:40;1.90;;;1.75;;
14584;SDS011;7379;51.506;11.876;2022-09-27T01:05:11;2.28;;;1.77;;
14584;SDS011;7379;51.506;11.876;2022-09-27T01:07:41;2.00;;;1.70;;
14584;SDS011;7379;51.506;11.876;2022-09-27T01:10:08;4.15;;;1.63;;
14584;SDS011;7379;51.506;11.876;2022-09-27T01:12:38;1.85;;;1.70;;
14584;SDS011;7379;51.506;11.876;2022-09-27T01:15:13;1.77;;;1.67;;
14584;SDS011;7379;51.506;11.876;2022-09-27T01:17:49;1.70;;;1.60;;
14584;SDS011;7379;51.506;11.876;2022-09-27T01:20:41;2.63;;;2.00;;
14584;SDS011;7379;51.506;11.876;2022-09-27T01:26:28;1.90;;;1.40;;
14584;SDS011;7379;51.506;11.876;2022-09-27T01:29:08;2.35;;;1.85;;
14584;SDS011;7379;51.506;11.876;2022-09-27T01:31:42;2.15;;;1.83;;
14584;SDS011;7379;51.506;11.876;2022-09-27T01:34:17;2.03;;;1.58;;
14584;SDS011;7379;51.506;11.876;2022-09-27T01:36:50;2.60;;;1.75;;
14584;SDS011;7379;51.506;11.876;2022-09-27T01:39:25;1.90;;;1.73;;
14584;SDS011;7379;51.506;11.876;2022-09-27T01:42:01;2.03;;;1.83;;
14584;SDS011;7379;51.506;11.876;2022-09-27T01:44:33;1.88;;;1.65;;
14584;SDS011;7379;51.506;11.876;2022-09-27T01:47:08;1.90;;;1.70;;
14584;SDS011;7379;51.506;11.876;2022-09-27T01:49:41;1.65;;;1.55;;
14584;SDS011;7379;51.506;11.876;2022-09-27T01:52:13;1.63;;;1.52;;
14584;SDS011;7379;51.506;11.876;2022-09-27T01:54:44;2.28;;;1.85;;
14584;SDS011;7379;51.506;11.876;2022-09-27T01:57:18;1.98;;;1.75;;
14584;SDS011;7379;51.506;11.876;2022-09-27T01:59:49;1.70;;;1.60;;
14584;SDS011;7379;51.506;11.876;2022-09-27T02:02:23;2.30;;;1.75;;
14584;SDS011;7379;51.506;11.876;2022-09-27T02:04:54;1.70;;;1.60;;
14584;SDS011;7379;51.506;11.876;2022-09-27T02:07:26;2.53;;;1.80;;
14584;SDS011;7379;51.506;11.876;2022-09-27T02:09:57;2.13;;;1.60;;
14584;SDS011;7379;51.506;11.876;2022-09-27T02:12:29;1.50;;;1.40;;
14584;SDS011;7379;51.506;11.876;2022-09-27T02:15:01;1.90;;;1.70;;
14584;SDS011;7379;51.506;11.876;2022-09-27T02:17:34;1.80;;;1.45;;
14584;SDS011;7379;51.506;11.876;2022-09-27T02:20:07;1.67;;;1.40;;
14584;SDS011;7379;51.506;11.876;2022-09-27T02:22:41;1.58;;;1.40;;
14584;SDS011;7379;51.506;11.876;2022-09-27T02:25:13;1.63;;;1.50;;
14584;SDS011;7379;51.506;11.876;2022-09-27T02:27:48;1.75;;;1.40;;
14584;SDS011;7379;51.506;11.876;2022-09-27T02:30:20;1.27;;;1.17;;
14584;SDS011;7379;51.506;11.876;2022-09-27T02:32:48;1.35;;;1.25;;
14584;SDS011;7379;51.506;11.876;2022-09-27T02:35:16;1.63;;;1.40;;
14584;SDS011;7379;51.506;11.876;2022-09-27T02:37:46;1.83;;;1.38;;
14584;SDS011;7379;51.506;11.876;2022-09-27T02:40:13;1.17;;;1.08;;
14584;SDS011;7379;51.506;11.876;2022-09-27T02:42:41;1.38;;;1.27;;
14584;SDS011;7379;51.506;11.876;2022-09-27T02:45:09;1.50;;;1.40;;
14584;SDS011;7379;51.506;11.876;2022-09-27T02:47:47;1.83;;;1.50;;
14584;SDS011;7379;51.506;11.876;2022-09-27T02:53:19;1.95;;;1.38;;
14584;SDS011;7379;51.506;11.876;2022-09-27T02:55:59;1.50;;;1.40;;
14584;SDS011;7379;51.506;11.876;2022-09-27T02:58:33;1.60;;;1.30;;
14584;SDS011;7379;51.506;11.876;2022-09-27T03:01:11;1.20;;;1.10;;
14584;SDS011;7379;51.506;11.876;2022-09-27T03:03:48;1.40;;;1.30;;
14584;SDS011;7379;51.506;11.876;2022-09-27T03:06:21;1.38;;;1.27;;
14584;SDS011;7379;51.506;11.876;2022-09-27T03:08:50;1.45;;;1.35;;
14584;SDS011;7379;51.506;11.876;2022-09-27T03:11:17;1.20;;;1.10;;
14584;SDS011;7379;51.506;11.876;2022-09-27T03:13:44;1.73;;;1.40;;
14584;SDS011;7379;51.506;11.876;2022-09-27T03:16:11;1.40;;;1.30;;
14584;SDS011;7379;51.506;11.876;2022-09-27T03:18:40;1.13;;;1.10;;
14584;SDS011;7379;51.506;11.876;2022-09-27T03:21:08;1.25;;;1.17;;
14584;SDS011;7379;51.506;11.876;2022-09-27T03:23:35;1.33;;;1.23;;
14584;SDS011;7379;51.506;11.876;2022-09-27T03:26:02;1.40;;;1.02;;
14584;SDS011;7379;51.506;11.876;2022-09-27T03:28:28;1.40;;;1.30;;
14584;SDS011;7379;51.506;11.876;2022-09-27T03:30:55;1.20;;;1.10;;
14584;SDS011;7379;51.506;11.876;2022-09-27T03:33:22;0.93;;;0.90;;
14584;SDS011;7379;51.506;11.876;2022-09-27T03:35:49;1.00;;;1.00;;
14584;SDS011;7379;51.506;11.876;2022-09-27T03:38:17;1.17;;;1.10;;
14584;SDS011;7379;51.506;11.876;2022-09-27T03:40:44;1.20;;;1.10;;
14584;SDS011;7379;51.506;11.876;2022-09-27T03:43:11;1.20;;;1.08;;
14584;SDS011;7379;51.506;11.876;2022-09-27T03:45:37;1.30;;;1.20;;
14584;SDS011;7379;51.506;11.876;2022-09-27T03:48:04;1.48;;;1.25;;
14584;SDS011;7379;51.506;11.876;2022-09-27T03:50:31;2.40;;;1.40;;
14584;SDS011;7379;51.506;11.876;2022-09-27T03:52:58;1.20;;;1.10;;
14584;SDS011;7379;51.506;11.876;2022-09-27T03:55:26;1.20;;;1.10;;
14584;SDS011;7379;51.506;11.876;2022-09-27T03:57:53;1.30;;;1.20;;
14584;SDS011;7379;51.506;11.876;2022-09-27T04:00:20;1.20;;;1.10;;
14584;SDS011;7379;51.506;11.876;2022-09-27T04:02:49;1.40;;;1.20;;
14584;SDS011;7379;51.506;11.876;2022-09-27T04:05:16;1.20;;;1.10;;
14584;SDS011;7379;51.506;11.876;2022-09-27T04:07:44;1.42;;;1.33;;
14584;SDS011;7379;51.506;11.876;2022-09-27T04:10:13;1.20;;;1.10;;
14584;SDS011;7379;51.506;11.876;2022-09-27T04:12:42;1.33;;;1.23;;
14584;SDS011;7379;51.506;11.876;2022-09-27T04:15:10;1.20;;;1.10;;
14584;SDS011;7379;51.506;11.876;2022-09-27T04:17:37;1.35;;;1.25;;
14584;SDS011;7379;51.506;11.876;2022-09-27T04:20:06;1.27;;;1.17;;
14584;SDS011;7379;51.506;11.876;2022-09-27T04:22:34;1.33;;;1.10;;
14584;SDS011;7379;51.506;11.876;2022-09-27T04:25:04;1.30;;;1.20;;
14584;SDS011;7379;51.506;11.876;2022-09-27T04:27:31;1.30;;;1.20;;
14584;SDS011;7379;51.506;11.876;2022-09-27T04:29:59;2.40;;;1.00;;
14584;SDS011;7379;51.506;11.876;2022-09-27T04:32:26;1.30;;;1.20;;
14584;SDS011;7379;51.506;11.876;2022-09-27T04:34:53;1.50;;;0.90;;
14584;SDS011;7379;51.506;11.876;2022-09-27T04:37:37;1.30;;;1.20;;
14584;SDS011;7379;51.506;11.876;2022-09-27T04:40:12;1.60;;;1.50;;
14584;SDS011;7379;51.506;11.876;2022-09-27T04:42:46;1.20;;;1.10;;
14584;SDS011;7379;51.506;11.876;2022-09-27T04:45:14;1.50;;;1.33;;
14584;SDS011;7379;51.506;11.876;2022-09-27T04:47:41;1.70;;;1.35;;
14584;SDS011;7379;51.506;11.876;2022-09-27T04:50:09;1.25;;;1.05;;
14584;SDS011;7379;51.506;11.876;2022-09-27T04:52:36;1.40;;;1.30;;
14584;SDS011;7379;51.506;11.876;2022-09-27T04:55:03;1.50;;;1.33;;
14584;SDS011;7379;51.506;11.876;2022-09-27T04:57:31;1.40;;;1.30;;
14584;SDS011;7379;51.506;11.876;2022-09-27T04:59:57;1.55;;;1.35;;
14584;SDS011;7379;51.506;11.876;2022-09-27T05:02:26;1.17;;;1.08;;
14584;SDS011;7379;51.506;11.876;2022-09-27T05:04:53;1.88;;;1.35;;
14584;SDS011;7379;51.506;11.876;2022-09-27T05:07:20;1.30;;;1.15;;
14584;SDS011;7379;51.506;11.876;2022-09-27T05:09:47;1.40;;;1.30;;
14584;SDS011;7379;51.506;11.876;2022-09-27T05:12:14;1.65;;;1.40;;
14584;SDS011;7379;51.506;11.876;2022-09-27T05:14:40;1.40;;;1.30;;
14584;SDS011;7379;51.506;11.876;2022-09-27T05:17:07;0.88;;;0.88;;
14584;SDS011;7379;51.506;11.876;2022-09-27T05:19:35;2.30;;;1.20;;
14584;SDS011;7379;51.506;11.876;2022-09-27T05:22:03;1.48;;;1.38;;
14584;SDS011;7379;51.506;11.876;2022-09-27T05:24:31;1.73;;;1.30;;
14584;SDS011;7379;51.506;11.876;2022-09-27T05:26:58;1.17;;;1.08;;
14584;SDS011;7379;51.506;11.876;2022-09-27T05:29:25;1.40;;;1.30;;
14584;SDS011;7379;51.506;11.876;2022-09-27T05:31:52;1.30;;;1.20;;
14584;SDS011;7379;51.506;11.876;2022-09-27T05:34:19;1.17;;;1.05;;
14584;SDS011;7379;51.506;11.876;2022-09-27T05:36:47;1.30;;;1.20;;
14584;SDS011;7379;51.506;11.876;2022-09-27T05:39:14;1.20;;;1.10;;
14584;SDS011;7379;51.506;11.876;2022-09-27T05:41:41;1.98;;;1.10;;
14584;SDS011;7379;51.506;11.876;2022-09-27T05:44:08;1.10;;;1.10;;
14584;SDS011;7379;51.506;11.876;2022-09-27T05:46:37;1.25;;;1.00;;
14584;SDS011;7379;51.506;11.876;2022-09-27T05:49:04;1.40;;;1.20;;
14584;SDS011;7379;51.506;11.876;2022-09-27T05:51:31;1.58;;;1.30;;
14584;SDS011;7379;51.506;11.876;2022-09-27T05:53:59;1.25;;;1.15;;
14584;SDS011;7379;51.506;11.876;2022-09-27T05:56:26;2.13;;;1.20;;
14584;SDS011;7379;51.506;11.876;2022-09-27T05:58:53;1.42;;;1.30;;
14584;SDS011;7379;51.506;11.876;2022-09-27T06:01:20;1.13;;;1.02;;
14584;SDS011;7379;51.506;11.876;2022-09-27T06:03:47;1.63;;;1.25;;
14584;SDS011;7379;51.506;11.876;2022-09-27T06:06:15;1.13;;;1.02;;
14584;SDS011;7379;51.506;11.876;2022-09-27T06:08:52;1.25;;;1.15;;
14584;SDS011;7379;51.506;11.876;2022-09-27T06:11:20;0.93;;;0.93;;
14584;SDS011;7379;51.506;11.876;2022-09-27T06:13:47;1.67;;;1.08;;
14584;SDS011;7379;51.506;11.876;2022-09-27T06:16:13;1.45;;;1.10;;
14584;SDS011;7379;51.506;11.876;2022-09-27T06:18:41;0.95;;;0.88;;
14584;SDS011;7379;51.506;11.876;2022-09-27T06:21:08;1.50;;;1.20;;
14584;SDS011;7379;51.506;11.876;2022-09-27T06:23:34;1.50;;;1.20;;
14584;SDS011;7379;51.506;11.876;2022-09-27T06:26:02;0.85;;;0.85;;
14584;SDS011;7379;51.506;11.876;2022-09-27T06:28:32;1.30;;;1.20;;
14584;SDS011;7379;51.506;11.876;2022-09-27T06:31:00;0.98;;;0.90;;
14584;SDS011;7379;51.506;11.876;2022-09-27T06:33:27;1.10;;;1.08;;
14584;SDS011;7379;51.506;11.876;2022-09-27T06:35:54;1.20;;;1.10;;
14584;SDS011;7379;51.506;11.876;2022-09-27T06:38:20;0.93;;;0.90;;
14584;SDS011;7379;51.506;11.876;2022-09-27T06:40:48;1.30;;;0.93;;
14584;SDS011;7379;51.506;11.876;2022-09-27T06:43:16;1.27;;;1.17;;
14584;SDS011;7379;51.506;11.876;2022-09-27T06:45:45;1.35;;;1.25;;
14584;SDS011;7379;51.506;11.876;2022-09-27T06:48:14;2.38;;;1.10;;
14584;SDS011;7379;51.506;11.876;2022-09-27T06:50:42;1.27;;;1.15;;
14584;SDS011;7379;51.506;11.876;2022-09-27T06:53:11;1.30;;;1.20;;
14584;SDS011;7379;51.506;11.876;2022-09-27T06:55:39;1.27;;;1.08;;
14584;SDS011;7379;51.506;11.876;2022-09-27T06:58:08;1.88;;;1.35;;
14584;SDS011;7379;51.506;11.876;2022-09-27T07:00:55;2.53;;;1.40;;
14584;SDS011;7379;51.506;11.876;2022-09-27T07:03:22;1.73;;;1.17;;
14584;SDS011;7379;51.506;11.876;2022-09-27T07:05:56;1.48;;;1.38;;
14584;SDS011;7379;51.506;11.876;2022-09-27T07:08:24;1.50;;;1.30;;
14584;SDS011;7379;51.506;11.876;2022-09-27T07:10:53;1.50;;;1.40;;
14584;SDS011;7379;51.506;11.876;2022-09-27T07:13:21;1.20;;;0.98;;
14584;SDS011;7379;51.506;11.876;2022-09-27T07:15:48;1.40;;;1.30;;
14584;SDS011;7379;51.506;11.876;2022-09-27T07:18:16;1.20;;;1.10;;
14584;SDS011;7379;51.506;11.876;2022-09-27T07:20:43;1.35;;;1.10;;
14584;SDS011;7379;51.506;11.876;2022-09-27T07:23:10;1.00;;;0.90;;
14584;SDS011;7379;51.506;11.876;2022-09-27T07:25:37;1.40;;;1.23;;
14584;SDS011;7379;51.506;11.876;2022-09-27T07:28:05;0.88;;;0.88;;
14584;SDS011;7379;51.506;11.876;2022-09-27T07:30:33;1.30;;;1.20;;
14584;SDS011;7379;51.506;11.876;2022-09-27T07:33:02;1.30;;;1.20;;
14584;SDS011;7379;51.506;11.876;2022-09-27T07:35:32;1.63;;;1.10;;
14584;SDS011;7379;51.506;11.876;2022-09-27T07:37:59;1.92;;;1.20;;
14584;SDS011;7379;51.506;11.876;2022-09-27T07:40:27;1.38;;;1.27;;
14584;SDS011;7379;51.506;11.876;2022-09-27T07:42:54;1.20;;;1.10;;
14584;SDS011;7379;51.506;11.876;2022-09-27T07:45:22;1.48;;;1.17;;
14584;SDS011;7379;51.506;11.876;2022-09-27T07:47:49;1.58;;;1.30;;
14584;SDS011;7379;51.506;11.876;2022-09-27T07:50:16;1.13;;;1.02;;
14584;SDS011;7379;51.506;11.876;2022-09-27T07:52:45;1.42;;;1.10;;
14584;SDS011;7379;51.506;11.876;2022-09-27T07:55:14;1.38;;;1.27;;
14584;SDS011;7379;51.506;11.876;2022-09-27T07:57:41;1.95;;;1.10;;
14584;SDS011;7379;51.506;11.876;2022-09-27T08:00:09;1.13;;;1.00;;
14584;SDS011;7379;51.506;11.876;2022-09-27T08:02:38;1.30;;;1.20;;
14584;SDS011;7379;51.506;11.876;2022-09-27T08:05:06;2.22;;;1.27;;
14584;SDS011;7379;51.506;11.876;2022-09-27T08:07:33;3.42;;;1.23;;
14584;SDS011;7379;51.506;11.876;2022-09-27T08:10:02;0.90;;;0.90;;
14584;SDS011;7379;51.506;11.876;2022-09-27T08:12:29;1.55;;;1.20;;
14584;SDS011;7379;51.506;11.876;2022-09-27T08:14:55;1.15;;;1.05;;
14584;SDS011;7379;51.506;11.876;2022-09-27T08:17:25;2.05;;;1.33;;
14584;SDS011;7379;51.506;11.876;2022-09-27T08:19:52;0.98;;;0.90;;
14584;SDS011;7379;51.506;11.876;2022-09-27T08:22:20;1.67;;;1.20;;
14584;SDS011;7379;51.506;11.876;2022-09-27T08:24:47;0.98;;;0.98;;
14584;SDS011;7379;51.506;11.876;2022-09-27T08:27:15;1.60;;;1.17;;
14584;SDS011;7379;51.506;11.876;2022-09-27T08:29:42;1.42;;;1.10;;
14584;SDS011;7379;51.506;11.876;2022-09-27T08:32:10;1.45;;;1.15;;
14584;SDS011;7379;51.506;11.876;2022-09-27T08:34:37;0.73;;;0.73;;
14584;SDS011;7379;51.506;11.876;2022-09-27T08:37:05;1.58;;;0.93;;
14584;SDS011;7379;51.506;11.876;2022-09-27T08:39:32;0.95;;;0.95;;
14584;SDS011;7379;51.506;11.876;2022-09-27T08:42:01;1.02;;;0.93;;
14584;SDS011;7379;51.506;11.876;2022-09-27T08:44:38;1.15;;;1.02;;
14584;SDS011;7379;51.506;11.876;2022-09-27T08:47:10;1.20;;;1.00;;
14584;SDS011;7379;51.506;11.876;2022-09-27T08:49:42;1.33;;;1.10;;
14584;SDS011;7379;51.506;11.876;2022-09-27T08:52:13;1.98;;;1.50;;
14584;SDS011;7379;51.506;11.876;2022-09-27T08:54:44;2.22;;;1.15;;
14584;SDS011;7379;51.506;11.876;2022-09-27T08:57:12;2.75;;;1.70;;
14584;SDS011;7379;51.506;11.876;2022-09-27T08:59:44;3.35;;;2.03;;
14584;SDS011;7379;51.506;11.876;2022-09-27T09:02:16;2.47;;;2.08;;
14584;SDS011;7379;51.506;11.876;2022-09-27T09:04:45;2.65;;;1.92;;
14584;SDS011;7379;51.506;11.876;2022-09-27T09:07:19;3.38;;;2.30;;
14584;SDS011;7379;51.506;11.876;2022-09-27T09:09:59;3.45;;;1.80;;
14584;SDS011;7379;51.506;11.876;2022-09-27T09:12:40;2.47;;;1.60;;
14584;SDS011;7379;51.506;11.876;2022-09-27T09:15:15;5.35;;;2.00;;
14584;SDS011;7379;51.506;11.876;2022-09-27T09:18:00;3.40;;;1.60;;
14584;SDS011;7379;51.506;11.876;2022-09-27T09:20:46;2.22;;;1.50;;
14584;SDS011;7379;51.506;11.876;2022-09-27T09:23:32;2.42;;;1.80;;
14584;SDS011;7379;51.506;11.876;2022-09-27T09:26:20;2.22;;;1.45;;
14584;SDS011;7379;51.506;11.876;2022-09-27T09:28:59;1.67;;;1.42;;
14584;SDS011;7379;51.506;11.876;2022-09-27T09:31:41;1.98;;;1.60;;
14584;SDS011;7379;51.506;11.876;2022-09-27T09:34:13;2.42;;;1.70;;
14584;SDS011;7379;51.506;11.876;2022-09-27T09:36:44;2.20;;;1.35;;
14584;SDS011;7379;51.506;11.876;2022-09-27T09:39:17;2.78;;;2.15;;
14584;SDS011;7379;51.506;11.876;2022-09-27T09:41:52;1.73;;;1.60;;
14584;SDS011;7379;51.506;11.876;2022-09-27T09:44:31;4.35;;;1.70;;
14584;SDS011;7379;51.506;11.876;2022-09-27T09:47:11;1.67;;;1.35;;
14584;SDS011;7379;51.506;11.876;2022-09-27T09:49:46;1.60;;;1.50;;
14584;SDS011;7379;51.506;11.876;2022-09-27T09:52:17;2.25;;;1.60;;
14584;SDS011;7379;51.506;11.876;2022-09-27T09:54:48;1.50;;;1.40;;
14584;SDS011;7379;51.506;11.876;2022-09-27T09:57:17;1.60;;;1.40;;
14584;SDS011;7379;51.506;11.876;2022-09-27T09:59:49;2.35;;;1.60;;
14584;SDS011;7379;51.506;11.876;2022-09-27T10:02:25;1.95;;;1.40;;
14584;SDS011;7379;51.506;11.876;2022-09-27T10:04:56;1.92;;;1.45;;
14584;SDS011;7379;51.506;11.876;2022-09-27T10:07:23;1.73;;;1.55;;
14584;SDS011;7379;51.506;11.876;2022-09-27T10:09:51;1.48;;;1.38;;
14584;SDS011;7379;51.506;11.876;2022-09-27T10:12:22;1.55;;;1.40;;
14584;SDS011;7379;51.506;11.876;2022-09-27T10:14:49;2.15;;;1.42;;
14584;SDS011;7379;51.506;11.876;2022-09-27T10:17:19;1.63;;;1.40;;
14584;SDS011;7379;51.506;11.876;2022-09-27T10:19:49;1.60;;;1.50;;
14584;SDS011;7379;51.506;11.876;2022-09-27T10:22:21;1.73;;;1.60;;
14584;SDS011;7379;51.506;11.876;2022-09-27T10:24:53;1.35;;;1.25;;
14584;SDS011;7379;51.506;11.876;2022-09-27T10:27:22;2.53;;;1.70;;
14584;SDS011;7379;51.506;11.876;2022-09-27T10:29:55;1.92;;;1.50;;
14584;SDS011;7379;51.506;11.876;2022-09-27T10:32:23;1.95;;;1.40;;
14584;SDS011;7379;51.506;11.876;2022-09-27T10:34:56;2.13;;;1.67;;
14584;SDS011;7379;51.506;11.876;2022-09-27T10:37:58;2.35;;;1.70;;
14584;SDS011;7379;51.506;11.876;2022-09-27T10:40:45;2.20;;;1.65;;
14584;SDS011;7379;51.506;11.876;2022-09-27T10:43:21;1.67;;;1.58;;
14584;SDS011;7379;51.506;11.876;2022-09-27T10:45:52;1.95;;;1.70;;
14584;SDS011;7379;51.506;11.876;2022-09-27T10:48:28;2.28;;;1.70;;
14584;SDS011;7379;51.506;11.876;2022-09-27T10:50:57;2.38;;;1.45;;
14584;SDS011;7379;51.506;11.876;2022-09-27T10:53:25;1.85;;;1.48;;
14584;SDS011;7379;51.506;11.876;2022-09-27T10:55:54;2.03;;;1.75;;
14584;SDS011;7379;51.506;11.876;2022-09-27T10:58:24;1.80;;;1.67;;
14584;SDS011;7379;51.506;11.876;2022-09-27T11:00:53;1.70;;;1.60;;
14584;SDS011;7379;51.506;11.876;2022-09-27T11:03:21;1.50;;;1.40;;
14584;SDS011;7379;51.506;11.876;2022-09-27T11:05:50;1.85;;;1.65;;
14584;SDS011;7379;51.506;11.876;2022-09-27T11:08:24;2.30;;;2.00;;
14584;SDS011;7379;51.506;11.876;2022-09-27T11:11:00;1.42;;;1.30;;
14584;SDS011;7379;51.506;11.876;2022-09-27T11:13:30;2.83;;;1.80;;
14584;SDS011;7379;51.506;11.876;2022-09-27T11:18:55;1.70;;;1.60;;
14584;SDS011;7379;51.506;11.876;2022-09-27T11:21:30;2.20;;;1.70;;
14584;SDS011;7379;51.506;11.876;2022-09-27T11:24:13;2.05;;;1.63;;
14584;SDS011;7379;51.506;11.876;2022-09-27T11:26:52;1.75;;;1.65;;
14584;SDS011;7379;51.506;11.876;2022-09-27T11:29:31;1.70;;;1.60;;
14584;SDS011;7379;51.506;11.876;2022-09-27T11:32:10;2.55;;;1.70;;
14584;SDS011;7379;51.506;11.876;2022-09-27T11:34:49;1.60;;;1.50;;
14584;SDS011;7379;51.506;11.876;2022-09-27T11:37:36;2.05;;;1.65;;
14584;SDS011;7379;51.506;11.876;2022-09-27T11:40:14;1.85;;;1.60;;
14584;SDS011;7379;51.506;11.876;2022-09-27T11:45:45;1.98;;;1.60;;
14584;SDS011;7379;51.506;11.876;2022-09-27T11:48:24;1.63;;;1.52;;
14584;SDS011;7379;51.506;11.876;2022-09-27T11:51:03;1.98;;;1.60;;
14584;SDS011;7379;51.506;11.876;2022-09-27T11:53:44;1.90;;;1.65;;
14584;SDS011;7379;51.506;11.876;2022-09-27T11:56:26;3.28;;;1.80;;
14584;SDS011;7379;51.506;11.876;2022-09-27T11:59:15;1.60;;;1.50;;
14584;SDS011;7379;51.506;11.876;2022-09-27T12:02:03;1.50;;;1.35;;
14584;SDS011;7379;51.506;11.876;2022-09-27T12:04:53;2.22;;;1.50;;
14584;SDS011;7379;51.506;11.876;2022-09-27T12:07:32;1.42;;;1.33;;
14584;SDS011;7379;51.506;11.876;2022-09-27T12:10:07;1.40;;;1.30;;
14584;SDS011;7379;51.506;11.876;2022-09-27T12:12:39;1.70;;;1.60;;
14584;SDS011;7379;51.506;11.876;2022-09-27T12:15:12;1.38;;;1.27;;
14584;SDS011;7379;51.506;11.876;2022-09-27T12:17:43;1.50;;;1.40;;
14584;SDS011;7379;51.506;11.876;2022-09-27T12:20:13;1.63;;;1.50;;
14584;SDS011;7379;51.506;11.876;2022-09-27T12:22:46;1.55;;;1.30;;
14584;SDS011;7379;51.506;11.876;2022-09-27T12:25:17;2.50;;;1.40;;
14584;SDS011;7379;51.506;11.876;2022-09-27T12:27:48;1.40;;;1.30;;
14584;SDS011;7379;51.506;11.876;2022-09-27T12:30:18;2.90;;;1.40;;
14584;SDS011;7379;51.506;11.876;2022-09-27T12:32:48;2.33;;;1.50;;
14584;SDS011;7379;51.506;11.876;2022-09-27T12:35:21;2.10;;;1.30;;
14584;SDS011;7379;51.506;11.876;2022-09-27T12:37:51;2.50;;;1.40;;
14584;SDS011;7379;51.506;11.876;2022-09-27T12:40:24;1.42;;;1.20;;
14584;SDS011;7379;51.506;11.876;2022-09-27T12:42:56;1.23;;;1.13;;
14584;SDS011;7379;51.506;11.876;2022-09-27T12:45:30;2.72;;;1.30;;
14584;SDS011;7379;51.506;11.876;2022-09-27T12:48:04;1.40;;;1.30;;
14584;SDS011;7379;51.506;11.876;2022-09-27T12:50:41;1.58;;;1.38;;
14584;SDS011;7379;51.506;11.876;2022-09-27T12:53:12;1.50;;;1.27;;
14584;SDS011;7379;51.506;11.876;2022-09-27T12:59:05;3.20;;;1.40;;
14584;SDS011;7379;51.506;11.876;2022-09-27T13:01:45;1.58;;;1.33;;
14584;SDS011;7379;51.506;11.876;2022-09-27T13:04:29;2.42;;;1.50;;
14584;SDS011;7379;51.506;11.876;2022-09-27T13:07:13;1.63;;;1.42;;
14584;SDS011;7379;51.506;11.876;2022-09-27T13:10:00;3.28;;;1.80;;
14584;SDS011;7379;51.506;11.876;2022-09-27T13:12:40;2.40;;;2.20;;
14584;SDS011;7379;51.506;11.876;2022-09-27T13:15:18;2.85;;;2.50;;
14584;SDS011;7379;51.506;11.876;2022-09-27T13:17:52;2.88;;;2.28;;
14584;SDS011;7379;51.506;11.876;2022-09-27T13:26:45;2.80;;;2.28;;
14584;SDS011;7379;51.506;11.876;2022-09-27T13:29:26;2.88;;;2.10;;
14584;SDS011;7379;51.506;11.876;2022-09-27T13:34:44;2.75;;;2.50;;
14584;SDS011;7379;51.506;11.876;2022-09-27T13:37:25;2.50;;;2.30;;
14584;SDS011;7379;51.506;11.876;2022-09-27T13:40:10;2.50;;;2.30;;
14584;SDS011;7379;51.506;11.876;2022-09-27T13:42:54;2.83;;;2.30;;
14584;SDS011;7379;51.506;11.876;2022-09-27T13:45:34;2.60;;;2.20;;
14584;SDS011;7379;51.506;11.876;2022-09-27T13:48:09;3.30;;;2.30;;
14584;SDS011;7379;51.506;11.876;2022-09-27T13:50:44;2.40;;;2.20;;
14584;SDS011;7379;51.506;11.876;2022-09-27T13:53:18;2.13;;;1.95;;
14584;SDS011;7379;51.506;11.876;2022-09-27T13:55:50;3.03;;;1.90;;
14584;SDS011;7379;51.506;11.876;2022-09-27T14:01:16;2.35;;;2.10;;
14584;SDS011;7379;51.506;11.876;2022-09-27T14:03:51;5.03;;;2.10;;
14584;SDS011;7379;51.506;11.876;2022-09-27T14:06:22;2.20;;;2.03;;
14584;SDS011;7379;51.506;11.876;2022-09-27T14:08:52;2.10;;;1.90;;
14584;SDS011;7379;51.506;11.876;2022-09-27T14:11:23;2.00;;;1.80;;
14584;SDS011;7379;51.506;11.876;2022-09-27T14:13:53;2.22;;;1.83;;
14584;SDS011;7379;51.506;11.876;2022-09-27T14:16:21;2.42;;;1.90;;
14584;SDS011;7379;51.506;11.876;2022-09-27T14:18:48;2.33;;;1.80;;
14584;SDS011;7379;51.506;11.876;2022-09-27T14:21:27;2.08;;;1.80;;
14584;SDS011;7379;51.506;11.876;2022-09-27T14:26:45;1.90;;;1.63;;
14584;SDS011;7379;51.506;11.876;2022-09-27T14:29:15;2.28;;;1.50;;
14584;SDS011;7379;51.506;11.876;2022-09-27T14:31:43;2.22;;;1.60;;
14584;SDS011;7379;51.506;11.876;2022-09-27T14:34:13;1.95;;;1.60;;
14584;SDS011;7379;51.506;11.876;2022-09-27T14:36:43;2.17;;;1.63;;
14584;SDS011;7379;51.506;11.876;2022-09-27T14:39:28;2.45;;;1.60;;
14584;SDS011;7379;51.506;11.876;2022-09-27T14:41:57;2.05;;;1.60;;
14584;SDS011;7379;51.506;11.876;2022-09-27T14:44:24;1.60;;;1.50;;
14584;SDS011;7379;51.506;11.876;2022-09-27T14:49:34;1.88;;;1.50;;
14584;SDS011;7379;51.506;11.876;2022-09-27T14:52:13;1.60;;;1.50;;
14584;SDS011;7379;51.506;11.876;2022-09-27T14:54:42;2.17;;;1.42;;
14584;SDS011;7379;51.506;11.876;2022-09-27T14:57:12;3.72;;;1.60;;
14584;SDS011;7379;51.506;11.876;2022-09-27T14:59:41;3.70;;;1.80;;
14584;SDS011;7379;51.506;11.876;2022-09-27T15:02:13;1.40;;;1.30;;
14584;SDS011;7379;51.506;11.876;2022-09-27T15:04:44;2.08;;;1.52;;
14584;SDS011;7379;51.506;11.876;2022-09-27T15:07:14;2.15;;;1.45;;
14584;SDS011;7379;51.506;11.876;2022-09-27T15:09:41;2.63;;;1.42;;
14584;SDS011;7379;51.506;11.876;2022-09-27T15:12:09;2.67;;;1.60;;
14584;SDS011;7379;51.506;11.876;2022-09-27T15:14:40;2.42;;;1.50;;
14584;SDS011;7379;51.506;11.876;2022-09-27T15:17:14;1.80;;;1.55;;
14584;SDS011;7379;51.506;11.876;2022-09-27T15:19:54;2.30;;;1.58;;
14584;SDS011;7379;51.506;11.876;2022-09-27T15:22:32;1.52;;;1.42;;
14584;SDS011;7379;51.506;11.876;2022-09-27T15:25:06;2.25;;;1.50;;
14584;SDS011;7379;51.506;11.876;2022-09-27T15:27:44;2.47;;;1.60;;
14584;SDS011;7379;51.506;11.876;2022-09-27T15:30:15;1.50;;;1.30;;
14584;SDS011;7379;51.506;11.876;2022-09-27T15:32:46;3.08;;;1.55;;
14584;SDS011;7379;51.506;11.876;2022-09-27T15:35:17;1.40;;;1.30;;
14584;SDS011;7379;51.506;11.876;2022-09-27T15:37:49;1.55;;;1.38;;
14584;SDS011;7379;51.506;11.876;2022-09-27T15:40:42;1.42;;;1.33;;
14584;SDS011;7379;51.506;11.876;2022-09-27T15:43:25;1.50;;;1.27;;
14584;SDS011;7379;51.506;11.876;2022-09-27T15:45:54;2.95;;;1.50;;